Time,TemperatureF,DewpointF,PressureIn,WindDirection,WindDirectionDegrees,WindSpeedMPH,WindSpeedGustMPH,Humidity,HourlyPrecipIn,Conditions,Clouds,dailyrainin,SoftwareType,DateUTC
2013-02-12 00:00:00,45.5,34.8,29.82,ENE,70,1.0,6.0,66,0.00,,---,0.00,VWS V14.00,2013-02-12 05:00:00,
2013-02-12 00:03:00,45.4,34.3,29.82,NNE,30,0.0,2.0,65,0.00,,---,0.00,VWS V14.00,2013-02-12 05:03:00,
2013-02-12 00:06:00,45.4,34.3,29.82,NW,321,2.0,4.0,65,0.00,,---,0.00,VWS V14.00,2013-02-12 05:06:00,
2013-02-12 00:09:00,45.5,34.0,29.81,North,352,4.0,5.0,64,0.00,,---,0.00,VWS V14.00,2013-02-12 05:09:00,
2013-02-12 00:12:00,45.5,34.0,29.81,NW,312,3.0,6.0,64,0.00,,---,0.00,VWS V14.00,2013-02-12 05:12:00,
2013-02-12 00:15:00,45.7,34.6,29.82,WNW,297,1.0,6.0,65,0.00,,---,0.00,VWS V14.00,2013-02-12 05:15:00,
2013-02-12 00:18:00,45.7,34.2,29.82,NNW,328,3.0,6.0,64,0.00,,---,0.00,VWS V14.00,2013-02-12 05:18:00,
2013-02-12 00:21:00,45.6,34.1,29.82,NNW,333,4.0,6.0,64,0.00,,---,0.00,VWS V14.00,2013-02-12 05:21:00,
2013-02-12 00:24:00,45.6,34.1,29.82,NW,320,4.0,6.0,64,0.00,,---,0.00,VWS V14.00,2013-02-12 05:24:00,
2013-02-12 00:27:00,45.5,34.0,29.82,North,7,2.0,6.0,64,0.00,,---,0.00,VWS V14.00,2013-02-12 05:27:00,
2013-02-12 00:30:00,45.6,33.3,29.82,NNE,30,6.0,7.0,62,0.00,,---,0.00,VWS V14.00,2013-02-12 05:30:00,
2013-02-12 00:33:00,45.8,33.1,29.81,NE,51,3.0,6.0,61,0.00,,---,0.00,VWS V14.00,2013-02-12 05:33:00,
2013-02-12 00:36:00,45.9,33.6,29.81,North,353,2.0,7.0,62,0.00,,---,0.00,VWS V14.00,2013-02-12 05:36:00,
2013-02-12 00:39:00,45.8,32.7,29.82,NW,321,2.0,7.0,60,0.00,,---,0.00,VWS V14.00,2013-02-12 05:39:00,
2013-02-12 00:42:00,45.9,33.2,29.82,NNW,335,5.0,7.0,61,0.00,,---,0.00,VWS V14.00,2013-02-12 05:42:00,
2013-02-12 00:45:00,45.9,32.4,29.82,NW,314,5.0,7.0,59,0.00,,---,0.00,VWS V14.00,2013-02-12 05:45:00,
2013-02-12 00:48:00,45.8,32.7,29.81,North,5,4.0,7.0,60,0.00,,---,0.00,VWS V14.00,2013-02-12 05:48:00,
2013-02-12 00:51:00,45.7,32.2,29.81,NW,326,6.0,8.0,59,0.00,,---,0.00,VWS V14.00,2013-02-12 05:51:00,
2013-02-12 00:54:00,45.6,32.5,29.81,NNW,333,4.0,8.0,60,0.00,,---,0.00,VWS V14.00,2013-02-12 05:54:00,
2013-02-12 00:57:00,45.4,32.3,29.82,NW,309,5.0,8.0,60,0.00,,---,0.00,VWS V14.00,2013-02-12 05:57:00,
2013-02-12 01:00:00,45.3,32.2,29.82,NW,318,5.0,8.0,60,0.00,,---,0.00,VWS V14.00,2013-02-12 06:00:00,
2013-02-12 01:03:00,45.2,32.2,29.81,NNW,328,4.0,8.0,60,0.00,,---,0.00,VWS V14.00,2013-02-12 06:03:00,
2013-02-12 01:06:00,45.1,32.5,29.80,North,354,6.0,9.0,61,0.00,,---,0.00,VWS V14.00,2013-02-12 06:06:00,
2013-02-12 01:09:00,45.0,32.8,29.79,North,360,5.0,9.0,62,0.00,,---,0.00,VWS V14.00,2013-02-12 06:09:00,
2013-02-12 01:12:00,44.9,31.9,29.81,NW,308,6.0,9.0,60,0.00,,---,0.00,VWS V14.00,2013-02-12 06:12:00,
2013-02-12 01:15:00,45.0,31.5,29.82,NNW,333,5.0,10.0,59,0.00,,---,0.00,VWS V14.00,2013-02-12 06:15:00,
2013-02-12 01:18:00,45.1,31.2,29.82,NNW,330,5.0,10.0,58,0.00,,---,0.00,VWS V14.00,2013-02-12 06:18:00,
2013-02-12 01:21:00,45.1,31.2,29.82,NNE,22,6.0,10.0,58,0.00,,---,0.00,VWS V14.00,2013-02-12 06:21:00,
2013-02-12 01:24:00,45.0,31.5,29.82,NE,41,6.0,10.0,59,0.00,,---,0.00,VWS V14.00,2013-02-12 06:24:00,
2013-02-12 01:27:00,44.8,31.8,29.82,NE,46,5.0,10.0,60,0.00,,---,0.00,VWS V14.00,2013-02-12 06:27:00,
2013-02-12 01:30:00,44.7,32.1,29.82,NE,41,8.0,11.0,61,0.00,,---,0.00,VWS V14.00,2013-02-12 06:30:00,
2013-02-12 01:33:00,44.7,31.7,29.82,NE,44,4.0,10.0,60,0.00,,---,0.00,VWS V14.00,2013-02-12 06:33:00,
2013-02-12 01:36:00,44.7,31.3,29.82,North,5,4.0,10.0,59,0.00,,---,0.00,VWS V14.00,2013-02-12 06:36:00,
2013-02-12 01:39:00,44.8,30.9,29.82,NNW,330,4.0,10.0,58,0.00,,---,0.00,VWS V14.00,2013-02-12 06:39:00,
2013-02-12 01:42:00,44.8,30.9,29.82,NW,318,6.0,10.0,58,0.00,,---,0.00,VWS V14.00,2013-02-12 06:42:00,
2013-02-12 01:45:00,44.9,30.6,29.81,NNW,345,6.0,10.0,57,0.00,,---,0.00,VWS V14.00,2013-02-12 06:45:00,
2013-02-12 01:48:00,44.9,30.6,29.81,North,354,5.0,10.0,57,0.00,,---,0.00,VWS V14.00,2013-02-12 06:48:00,
2013-02-12 01:51:00,44.9,31.0,29.82,NNE,23,3.0,10.0,58,0.00,,---,0.00,VWS V14.00,2013-02-12 06:51:00,
2013-02-12 01:54:00,44.9,30.6,29.83,NW,307,2.0,10.0,57,0.00,,---,0.00,VWS V14.00,2013-02-12 06:54:00,
2013-02-12 01:57:00,45.0,30.7,29.83,ENE,73,7.0,11.0,57,0.00,,---,0.00,VWS V14.00,2013-02-12 06:57:00,
2013-02-12 02:00:00,45.1,30.4,29.83,North,350,5.0,11.0,56,0.00,,---,0.00,VWS V14.00,2013-02-12 07:00:00,
2013-02-12 02:03:00,45.1,29.9,29.83,North,352,4.0,8.0,55,0.00,,---,0.00,VWS V14.00,2013-02-12 07:03:00,
2013-02-12 02:06:00,45.1,30.8,29.82,North,349,4.0,8.0,57,0.00,,---,0.00,VWS V14.00,2013-02-12 07:06:00,
2013-02-12 02:09:00,45.0,30.7,29.82,NNE,33,8.0,10.0,57,0.00,,---,0.00,VWS V14.00,2013-02-12 07:09:00,
2013-02-12 02:12:00,44.9,31.0,29.82,NE,41,7.0,10.0,58,0.00,,---,0.00,VWS V14.00,2013-02-12 07:12:00,
2013-02-12 02:15:00,44.7,30.9,29.82,NE,49,8.0,10.0,58,0.00,,---,0.00,VWS V14.00,2013-02-12 07:15:00,
2013-02-12 02:18:00,44.7,30.4,29.82,NNW,345,4.0,11.0,57,0.00,,---,0.00,VWS V14.00,2013-02-12 07:18:00,
2013-02-12 02:21:00,44.7,30.4,29.82,NE,43,5.0,12.0,57,0.00,,---,0.00,VWS V14.00,2013-02-12 07:21:00,
2013-02-12 02:24:00,44.8,30.5,29.82,NE,52,9.0,12.0,57,0.00,,---,0.00,VWS V14.00,2013-02-12 07:24:00,
2013-02-12 02:27:00,44.8,30.9,29.82,NNW,333,5.0,12.0,58,0.00,,---,0.00,VWS V14.00,2013-02-12 07:27:00,
2013-02-12 02:30:00,44.8,30.5,29.82,NNW,342,4.0,13.0,57,0.00,,---,0.00,VWS V14.00,2013-02-12 07:30:00,
2013-02-12 02:33:00,44.9,29.7,29.81,NNE,23,5.0,11.0,55,0.00,,---,0.00,VWS V14.00,2013-02-12 07:33:00,
2013-02-12 02:36:00,44.9,29.7,29.81,NNE,23,6.0,12.0,55,0.00,,---,0.00,VWS V14.00,2013-02-12 07:36:00,
2013-02-12 02:39:00,44.9,30.2,29.80,NNE,30,7.0,12.0,56,0.00,,---,0.00,VWS V14.00,2013-02-12 07:39:00,
2013-02-12 02:42:00,44.8,30.1,29.80,NNW,329,2.0,12.0,56,0.00,,---,0.00,VWS V14.00,2013-02-12 07:42:00,
2013-02-12 02:45:00,44.7,30.0,29.81,NNW,345,5.0,12.0,56,0.00,,---,0.00,VWS V14.00,2013-02-12 07:45:00,
2013-02-12 02:48:00,44.7,30.0,29.81,NNW,340,5.0,12.0,56,0.00,,---,0.00,VWS V14.00,2013-02-12 07:48:00,
2013-02-12 02:51:00,44.7,29.5,29.81,NNW,347,5.0,12.0,55,0.00,,---,0.00,VWS V14.00,2013-02-12 07:51:00,
2013-02-12 02:54:00,44.8,29.6,29.81,NNW,342,5.0,12.0,55,0.00,,---,0.00,VWS V14.00,2013-02-12 07:54:00,
2013-02-12 02:57:00,44.9,29.3,29.81,NW,319,5.0,12.0,54,0.00,,---,0.00,VWS V14.00,2013-02-12 07:57:00,
2013-02-12 03:00:00,45.1,28.1,29.81,WNW,300,8.0,14.0,51,0.00,,---,0.00,VWS V14.00,2013-02-12 08:00:00,
2013-02-12 03:03:00,45.4,28.8,29.80,NNW,335,6.0,15.0,52,0.00,,---,0.00,VWS V14.00,2013-02-12 08:03:00,
2013-02-12 03:06:00,45.4,28.8,29.80,NNE,26,5.0,15.0,52,0.00,,---,0.00,VWS V14.00,2013-02-12 08:06:00,
2013-02-12 03:09:00,45.3,29.2,29.80,NE,49,7.0,15.0,53,0.00,,---,0.00,VWS V14.00,2013-02-12 08:09:00,
2013-02-12 03:12:00,45.2,29.1,29.80,NNW,333,3.0,15.0,53,0.00,,---,0.00,VWS V14.00,2013-02-12 08:12:00,
2013-02-12 03:15:00,45.1,29.0,29.80,WNW,298,8.0,15.0,53,0.00,,---,0.00,VWS V14.00,2013-02-12 08:15:00,
2013-02-12 03:18:00,45.0,28.9,29.81,NNW,330,5.0,15.0,53,0.00,,---,0.00,VWS V14.00,2013-02-12 08:18:00,
2013-02-12 03:21:00,45.0,28.9,29.81,NNW,330,8.0,15.0,53,0.00,,---,0.00,VWS V14.00,2013-02-12 08:21:00,
2013-02-12 03:24:00,45.0,28.9,29.81,NE,34,11.0,15.0,53,0.00,,---,0.00,VWS V14.00,2013-02-12 08:24:00,
2013-02-12 03:27:00,45.1,29.0,29.82,North,353,8.0,15.0,53,0.00,,---,0.00,VWS V14.00,2013-02-12 08:27:00,
2013-02-12 03:30:00,45.1,29.0,29.81,NW,316,6.0,15.0,53,0.00,,---,0.00,VWS V14.00,2013-02-12 08:30:00,
2013-02-12 03:33:00,45.1,29.0,29.82,NE,39,9.0,13.0,53,0.00,,---,0.00,VWS V14.00,2013-02-12 08:33:00,
2013-02-12 03:36:00,45.1,29.5,29.82,NW,318,2.0,13.0,54,0.00,,---,0.00,VWS V14.00,2013-02-12 08:36:00,
2013-02-12 03:39:00,44.9,29.3,29.82,NE,45,6.0,13.0,54,0.00,,---,0.00,VWS V14.00,2013-02-12 08:39:00,
2013-02-12 03:45:00,44.7,30.0,29.82,NNE,18,10.0,13.0,56,0.00,,---,0.00,VWS V14.00,2013-02-12 08:45:00,
2013-02-12 03:48:00,44.6,29.5,29.82,NNE,33,4.0,13.0,55,0.00,,---,0.00,VWS V14.00,2013-02-12 08:48:00,
2013-02-12 03:51:00,44.5,29.8,29.82,NW,307,3.0,13.0,56,0.00,,---,0.00,VWS V14.00,2013-02-12 08:51:00,
2013-02-12 03:54:00,44.4,29.7,29.82,NNE,17,6.0,15.0,56,0.00,,---,0.00,VWS V14.00,2013-02-12 08:54:00,
2013-02-12 03:58:00,44.3,29.6,29.81,NE,37,11.0,15.0,56,0.00,,---,0.00,VWS V14.00,2013-02-12 08:58:00,
2013-02-12 04:00:00,43.9,29.2,29.81,North,5,4.0,15.0,56,0.00,,---,0.00,VWS V14.00,2013-02-12 09:00:00,
2013-02-12 04:01:00,43.1,27.6,29.81,NNE,33,8.0,8.0,54,0.00,,---,0.00,VWS V14.00,2013-02-12 09:01:00,
2013-02-12 04:04:00,43.1,27.6,29.81,NNE,33,8.0,8.0,54,0.00,,---,0.00,VWS V14.00,2013-02-12 09:04:00,
2013-02-12 04:07:00,44.8,29.6,29.82,NNW,333,4.0,13.0,55,0.00,,---,0.00,VWS V14.00,2013-02-12 09:07:00,
2013-02-12 04:10:00,43.1,27.6,29.81,NNE,33,8.0,8.0,54,0.00,,---,0.00,VWS V14.00,2013-02-12 09:10:00,
2013-02-12 04:13:00,43.1,27.6,29.81,NNE,33,8.0,8.0,54,0.00,,---,0.00,VWS V14.00,2013-02-12 09:13:00,
2013-02-12 04:16:00,43.1,27.6,29.81,NNE,33,8.0,8.0,54,0.00,,---,0.00,VWS V14.00,2013-02-12 09:16:00,
2013-02-12 04:19:00,43.1,27.6,29.81,NNE,33,8.0,8.0,54,0.00,,---,0.00,VWS V14.00,2013-02-12 09:19:00,
2013-02-12 04:22:00,43.1,27.6,29.81,NNE,33,8.0,8.0,54,0.00,,---,0.00,VWS V14.00,2013-02-12 09:22:00,
2013-02-12 04:25:00,43.1,27.6,29.81,NNE,33,8.0,8.0,54,0.00,,---,0.00,VWS V14.00,2013-02-12 09:25:00,
2013-02-12 04:28:00,43.1,27.6,29.81,NNE,33,8.0,8.0,54,0.00,,---,0.00,VWS V14.00,2013-02-12 09:28:00,
2013-02-12 04:30:00,43.1,27.6,29.82,NNE,33,8.0,8.0,54,0.00,,---,0.00,VWS V14.00,2013-02-12 09:30:00,
2013-02-12 04:31:00,43.1,27.6,29.82,NNE,33,8.0,8.0,54,0.00,,---,0.00,VWS V14.00,2013-02-12 09:31:00,
2013-02-12 04:34:00,43.1,27.6,29.82,NNE,33,8.0,8.0,54,0.00,,---,0.00,VWS V14.00,2013-02-12 09:34:00,
2013-02-12 04:37:00,43.1,27.6,29.82,NNE,33,8.0,8.0,54,0.00,,---,0.00,VWS V14.00,2013-02-12 09:37:00,
2013-02-12 04:40:00,43.1,27.6,29.81,NNE,33,8.0,8.0,54,0.00,,---,0.00,VWS V14.00,2013-02-12 09:40:00,
2013-02-12 04:43:00,43.1,27.6,29.82,NNE,33,8.0,8.0,54,0.00,,---,0.00,VWS V14.00,2013-02-12 09:43:00,
2013-02-12 04:46:00,43.1,27.6,29.82,NNE,33,8.0,8.0,54,0.00,,---,0.00,VWS V14.00,2013-02-12 09:46:00,
2013-02-12 04:49:00,43.1,27.6,29.81,NNE,33,8.0,8.0,54,0.00,,---,0.00,VWS V14.00,2013-02-12 09:49:00,
2013-02-12 04:52:00,43.1,27.6,29.80,NNE,33,8.0,8.0,54,0.00,,---,0.00,VWS V14.00,2013-02-12 09:52:00,
2013-02-12 04:55:00,43.1,27.6,29.80,NNE,33,8.0,8.0,54,0.00,,---,0.00,VWS V14.00,2013-02-12 09:55:00,
2013-02-12 04:58:00,43.1,27.6,29.80,NNE,33,8.0,8.0,54,0.00,,---,0.00,VWS V14.00,2013-02-12 09:58:00,
2013-02-12 05:00:00,43.1,27.6,29.80,NNE,33,8.0,8.0,54,0.00,,---,0.00,VWS V14.00,2013-02-12 10:00:00,
2013-02-12 05:01:00,43.1,27.6,29.80,NNE,33,8.0,8.0,54,0.00,,---,0.00,VWS V14.00,2013-02-12 10:01:00,
2013-02-12 05:04:00,43.1,27.6,29.80,NNE,33,8.0,8.0,54,0.00,,---,0.00,VWS V14.00,2013-02-12 10:04:00,
2013-02-12 05:07:00,43.1,27.6,29.80,NNE,33,8.0,8.0,54,0.00,,---,0.00,VWS V14.00,2013-02-12 10:07:00,
2013-02-12 05:10:00,43.1,27.6,29.80,NNE,33,8.0,8.0,54,0.00,,---,0.00,VWS V14.00,2013-02-12 10:10:00,
2013-02-12 05:13:00,43.1,27.6,29.80,NNE,33,8.0,8.0,54,0.00,,---,0.00,VWS V14.00,2013-02-12 10:13:00,
2013-02-12 05:16:00,43.1,27.6,29.80,NNE,33,8.0,8.0,54,0.00,,---,0.00,VWS V14.00,2013-02-12 10:16:00,
2013-02-12 05:19:00,43.1,27.6,29.80,NNE,33,8.0,8.0,54,0.00,,---,0.00,VWS V14.00,2013-02-12 10:19:00,
2013-02-12 05:22:00,43.1,27.6,29.81,NNE,33,8.0,8.0,54,0.00,,---,0.00,VWS V14.00,2013-02-12 10:22:00,
2013-02-12 05:25:00,43.1,27.6,29.81,NNE,33,8.0,8.0,54,0.00,,---,0.00,VWS V14.00,2013-02-12 10:25:00,
2013-02-12 05:28:00,43.1,27.6,29.81,NNE,33,8.0,8.0,54,0.00,,---,0.00,VWS V14.00,2013-02-12 10:28:00,
2013-02-12 05:30:00,43.1,27.6,29.81,NNE,33,8.0,8.0,54,0.00,,---,0.00,VWS V14.00,2013-02-12 10:30:00,
2013-02-12 05:31:00,43.1,27.6,29.81,NNE,33,8.0,8.0,54,0.00,,---,0.00,VWS V14.00,2013-02-12 10:31:00,
2013-02-12 05:34:00,43.1,27.6,29.81,NNE,33,8.0,8.0,54,0.00,,---,0.00,VWS V14.00,2013-02-12 10:34:00,
2013-02-12 05:37:00,43.1,27.6,29.81,NNE,33,8.0,8.0,54,0.00,,---,0.00,VWS V14.00,2013-02-12 10:37:00,
2013-02-12 05:40:00,43.1,27.6,29.81,NNE,33,8.0,8.0,54,0.00,,---,0.00,VWS V14.00,2013-02-12 10:40:00,
2013-02-12 05:43:00,43.1,27.6,29.81,NNE,33,8.0,8.0,54,0.00,,---,0.00,VWS V14.00,2013-02-12 10:43:00,
2013-02-12 05:46:00,43.1,27.6,29.81,NNE,33,8.0,8.0,54,0.00,,---,0.00,VWS V14.00,2013-02-12 10:46:00,
2013-02-12 05:49:00,43.1,27.6,29.81,NNE,33,8.0,8.0,54,0.00,,---,0.00,VWS V14.00,2013-02-12 10:49:00,
2013-02-12 05:52:00,43.1,27.6,29.80,NNE,33,8.0,8.0,54,0.00,,---,0.00,VWS V14.00,2013-02-12 10:52:00,
2013-02-12 05:55:00,43.1,27.6,29.81,NNE,33,8.0,8.0,54,0.00,,---,0.00,VWS V14.00,2013-02-12 10:55:00,
2013-02-12 05:58:00,43.1,27.6,29.81,NNE,33,8.0,8.0,54,0.00,,---,0.00,VWS V14.00,2013-02-12 10:58:00,
2013-02-12 06:00:00,43.1,27.6,29.82,NNE,33,8.0,8.0,54,0.00,,---,0.00,VWS V14.00,2013-02-12 11:00:00,
2013-02-12 06:01:00,43.1,27.6,29.82,NNE,33,8.0,8.0,54,0.00,,---,0.00,VWS V14.00,2013-02-12 11:01:00,
2013-02-12 06:04:00,43.1,27.6,29.82,NNE,33,8.0,8.0,54,0.00,,---,0.00,VWS V14.00,2013-02-12 11:04:00,
2013-02-12 06:07:00,43.1,27.6,29.82,NNE,33,8.0,8.0,54,0.00,,---,0.00,VWS V14.00,2013-02-12 11:07:00,
2013-02-12 06:10:00,43.1,27.6,29.82,NNE,33,8.0,8.0,54,0.00,,---,0.00,VWS V14.00,2013-02-12 11:10:00,
2013-02-12 06:13:00,43.1,27.6,29.82,NNE,33,8.0,8.0,54,0.00,,---,0.00,VWS V14.00,2013-02-12 11:13:00,
2013-02-12 06:16:00,43.1,27.6,29.83,NNE,33,8.0,8.0,54,0.00,,---,0.00,VWS V14.00,2013-02-12 11:16:00,
2013-02-12 06:19:00,43.1,27.6,29.83,NNE,33,8.0,8.0,54,0.00,,---,0.00,VWS V14.00,2013-02-12 11:19:00,
2013-02-12 06:22:00,43.1,27.6,29.82,NNE,33,8.0,8.0,54,0.00,,---,0.00,VWS V14.00,2013-02-12 11:22:00,
2013-02-12 06:25:00,43.1,27.6,29.83,NNE,33,8.0,8.0,54,0.00,,---,0.00,VWS V14.00,2013-02-12 11:25:00,
2013-02-12 06:28:00,43.1,27.6,29.83,NNE,33,8.0,8.0,54,0.00,,---,0.00,VWS V14.00,2013-02-12 11:28:00,
2013-02-12 06:30:00,43.1,27.6,29.83,NNE,33,8.0,8.0,54,0.00,,---,0.00,VWS V14.00,2013-02-12 11:30:00,
2013-02-12 06:31:00,43.1,27.6,29.83,NNE,33,8.0,8.0,54,0.00,,---,0.00,VWS V14.00,2013-02-12 11:31:00,
2013-02-12 06:34:00,43.1,27.6,29.83,NNE,33,8.0,8.0,54,0.00,,---,0.00,VWS V14.00,2013-02-12 11:34:00,
2013-02-12 06:37:00,43.1,27.6,29.83,NNE,33,8.0,8.0,54,0.00,,---,0.00,VWS V14.00,2013-02-12 11:37:00,
2013-02-12 06:40:00,43.1,27.6,29.82,NNE,33,8.0,8.0,54,0.00,,---,0.00,VWS V14.00,2013-02-12 11:40:00,
2013-02-12 06:43:00,43.1,27.6,29.83,NNE,33,8.0,8.0,54,0.00,,---,0.00,VWS V14.00,2013-02-12 11:43:00,
2013-02-12 06:46:00,43.1,27.6,29.83,NNE,33,8.0,8.0,54,0.00,,---,0.00,VWS V14.00,2013-02-12 11:46:00,
2013-02-12 06:49:00,43.1,27.6,29.82,NNE,33,8.0,8.0,54,0.00,,---,0.00,VWS V14.00,2013-02-12 11:49:00,
2013-02-12 06:52:00,43.1,27.6,29.82,NNE,33,8.0,8.0,54,0.00,,---,0.00,VWS V14.00,2013-02-12 11:52:00,
2013-02-12 06:55:00,43.1,27.6,29.82,NNE,33,8.0,8.0,54,0.00,,---,0.00,VWS V14.00,2013-02-12 11:55:00,
2013-02-12 06:58:00,43.1,27.6,29.83,NNE,33,8.0,8.0,54,0.00,,---,0.00,VWS V14.00,2013-02-12 11:58:00,
2013-02-12 07:00:00,43.1,27.6,29.82,NNE,33,8.0,8.0,54,0.00,,---,0.00,VWS V14.00,2013-02-12 12:00:00,
2013-02-12 07:01:00,43.1,27.6,29.83,NNE,33,8.0,8.0,54,0.00,,---,0.00,VWS V14.00,2013-02-12 12:01:00,
2013-02-12 07:04:00,43.1,27.6,29.83,NNE,33,8.0,8.0,54,0.00,,---,0.00,VWS V14.00,2013-02-12 12:04:00,
2013-02-12 07:07:00,43.1,27.6,29.82,NNE,33,8.0,8.0,54,0.00,,---,0.00,VWS V14.00,2013-02-12 12:07:00,
2013-02-12 07:10:00,43.1,27.6,29.82,NNE,33,8.0,8.0,54,0.00,,---,0.00,VWS V14.00,2013-02-12 12:10:00,
2013-02-12 07:13:00,43.1,27.6,29.82,NNE,33,8.0,8.0,54,0.00,,---,0.00,VWS V14.00,2013-02-12 12:13:00,
2013-02-12 07:16:00,43.1,27.6,29.82,NNE,33,8.0,8.0,54,0.00,,---,0.00,VWS V14.00,2013-02-12 12:16:00,
2013-02-12 07:19:00,43.1,27.6,29.82,NNE,33,8.0,8.0,54,0.00,,---,0.00,VWS V14.00,2013-02-12 12:19:00,
2013-02-12 07:22:00,43.1,27.6,29.83,NNE,33,8.0,8.0,54,0.00,,---,0.00,VWS V14.00,2013-02-12 12:22:00,
2013-02-12 07:25:00,43.1,27.6,29.83,NNE,33,8.0,8.0,54,0.00,,---,0.00,VWS V14.00,2013-02-12 12:25:00,
2013-02-12 07:28:00,43.1,27.6,29.83,NNE,33,8.0,8.0,54,0.00,,---,0.00,VWS V14.00,2013-02-12 12:28:00,
2013-02-12 07:30:00,43.1,27.6,29.84,NNE,33,8.0,8.0,54,0.00,,---,0.00,VWS V14.00,2013-02-12 12:30:00,
2013-02-12 07:31:00,43.1,27.6,29.84,NNE,33,8.0,8.0,54,0.00,,---,0.00,VWS V14.00,2013-02-12 12:31:00,
2013-02-12 07:34:00,43.1,27.6,29.84,NNE,33,8.0,8.0,54,0.00,,---,0.00,VWS V14.00,2013-02-12 12:34:00,
2013-02-12 07:37:00,43.1,27.6,29.84,NNE,33,8.0,8.0,54,0.00,,---,0.00,VWS V14.00,2013-02-12 12:37:00,
2013-02-12 07:40:00,43.1,27.6,29.84,NNE,33,8.0,8.0,54,0.00,,---,0.00,VWS V14.00,2013-02-12 12:40:00,
2013-02-12 07:43:00,43.1,27.6,29.84,NNE,33,8.0,8.0,54,0.00,,---,0.00,VWS V14.00,2013-02-12 12:43:00,
2013-02-12 07:46:00,43.1,27.6,29.84,NNE,33,8.0,8.0,54,0.00,,---,0.00,VWS V14.00,2013-02-12 12:46:00,
2013-02-12 07:49:00,40.9,29.7,29.84,North,352,12.0,12.0,64,0.00,,---,0.00,VWS V14.00,2013-02-12 12:49:00,
2013-02-12 07:52:00,41.1,29.9,29.85,NE,39,7.0,12.0,64,0.00,,---,0.00,VWS V14.00,2013-02-12 12:52:00,
2013-02-12 07:55:00,41.2,30.0,29.85,NE,42,13.0,13.0,64,0.00,,---,0.00,VWS V14.00,2013-02-12 12:55:00,
2013-02-12 07:58:00,41.3,29.7,29.85,NNW,340,6.0,13.0,63,0.00,,---,0.00,VWS V14.00,2013-02-12 12:58:00,
2013-02-12 08:00:00,41.3,29.7,29.86,NW,318,4.0,13.0,63,0.00,,---,0.00,VWS V14.00,2013-02-12 13:00:00,
2013-02-12 08:01:00,41.3,29.3,29.85,NE,50,11.0,12.0,62,0.00,,---,0.00,VWS V14.00,2013-02-12 13:01:00,
2013-02-12 08:04:00,41.4,29.4,29.84,NE,43,8.0,14.0,62,0.00,,---,0.00,VWS V14.00,2013-02-12 13:04:00,
2013-02-12 08:07:00,41.5,29.9,29.85,NE,46,11.0,14.0,63,0.00,,---,0.00,VWS V14.00,2013-02-12 13:07:00,
2013-02-12 08:10:00,41.5,29.5,29.85,ENE,62,7.0,17.0,62,0.00,,---,0.00,VWS V14.00,2013-02-12 13:10:00,
2013-02-12 08:13:00,41.4,29.8,29.84,NE,45,6.0,19.0,63,0.00,,---,0.00,VWS V14.00,2013-02-12 13:13:00,
2013-02-12 08:16:00,41.4,29.8,29.85,NNW,335,12.0,19.0,63,0.00,,---,0.00,VWS V14.00,2013-02-12 13:16:00,
2013-02-12 08:22:00,41.3,29.7,29.84,NE,51,10.0,19.0,63,0.00,,---,0.00,VWS V14.00,2013-02-12 13:22:00,
2013-02-12 08:25:00,41.3,30.1,29.85,NE,46,14.0,19.0,64,0.00,,---,0.00,VWS V14.00,2013-02-12 13:25:00,
2013-02-12 08:28:00,41.4,29.8,29.85,ENE,58,12.0,19.0,63,0.00,,---,0.00,VWS V14.00,2013-02-12 13:28:00,
2013-02-12 08:30:00,41.5,29.9,29.85,ENE,58,10.0,19.0,63,0.00,,---,0.00,VWS V14.00,2013-02-12 13:30:00,
2013-02-12 08:31:00,41.5,29.9,29.85,NNE,27,8.0,10.0,63,0.00,,---,0.00,VWS V14.00,2013-02-12 13:31:00,
2013-02-12 08:38:00,41.6,30.0,29.85,NE,50,7.0,11.0,63,0.00,,---,0.00,VWS V14.00,2013-02-12 13:38:00,
2013-02-12 08:41:00,41.5,29.9,29.85,NE,41,13.0,14.0,63,0.00,,---,0.00,VWS V14.00,2013-02-12 13:41:00,
2013-02-12 08:44:00,41.4,29.8,29.84,NNE,33,10.0,19.0,63,0.00,,---,0.00,VWS V14.00,2013-02-12 13:44:00,
2013-02-12 08:47:00,41.7,29.7,29.85,NNE,33,10.0,14.0,62,0.00,,---,0.00,VWS V14.00,2013-02-12 13:47:00,
2013-02-12 08:50:00,41.9,29.9,29.85,NNE,15,9.0,14.0,62,0.00,,---,0.00,VWS V14.00,2013-02-12 13:50:00,
2013-02-12 08:53:00,42.1,29.6,29.85,NE,39,10.0,14.0,61,0.00,,---,0.00,VWS V14.00,2013-02-12 13:53:00,
2013-02-12 08:56:00,42.3,29.8,29.85,NNW,328,3.0,14.0,61,0.00,,---,0.00,VWS V14.00,2013-02-12 13:56:00,
2013-02-12 08:59:00,41.6,29.6,29.85,North,356,4.0,11.0,62,0.00,,---,0.00,VWS V14.00,2013-02-12 13:59:00,
2013-02-12 09:00:00,42.6,29.3,29.85,NE,44,7.0,14.0,59,0.00,,---,0.00,VWS V14.00,2013-02-12 14:00:00,
2013-02-12 09:02:00,42.7,29.8,29.85,NE,46,9.0,11.0,60,0.00,,---,0.00,VWS V14.00,2013-02-12 14:02:00,
2013-02-12 09:05:00,42.9,29.6,29.85,NE,54,8.0,11.0,59,0.00,,---,0.00,VWS V14.00,2013-02-12 14:05:00,
2013-02-12 09:08:00,43.1,29.8,29.85,NNE,33,10.0,12.0,59,0.00,,---,0.00,VWS V14.00,2013-02-12 14:08:00,
2013-02-12 09:11:00,43.3,29.1,29.85,NE,39,8.0,13.0,57,0.00,,---,0.00,VWS V14.00,2013-02-12 14:11:00,
2013-02-12 09:14:00,43.5,29.3,29.85,NNW,345,3.0,13.0,57,0.00,,---,0.00,VWS V14.00,2013-02-12 14:14:00,
2013-02-12 09:17:00,43.7,29.0,29.85,NW,322,8.0,13.0,56,0.00,,---,0.00,VWS V14.00,2013-02-12 14:17:00,
2013-02-12 09:20:00,43.9,27.9,29.85,NE,51,7.0,13.0,53,0.00,,---,0.00,VWS V14.00,2013-02-12 14:20:00,
2013-02-12 09:23:00,44.0,28.9,29.84,NE,34,9.0,15.0,55,0.00,,---,0.00,VWS V14.00,2013-02-12 14:23:00,
2013-02-12 09:26:00,44.1,29.4,29.85,NE,54,10.0,15.0,56,0.00,,---,0.00,VWS V14.00,2013-02-12 14:26:00,
2013-02-12 09:29:00,44.3,29.2,29.84,NE,36,10.0,15.0,55,0.00,,---,0.00,VWS V14.00,2013-02-12 14:29:00,
2013-02-12 09:30:00,44.4,28.4,29.84,North,8,7.0,15.0,53,0.00,,---,0.00,VWS V14.00,2013-02-12 14:30:00,
2013-02-12 09:32:00,44.5,28.9,29.84,NE,37,9.0,13.0,54,0.00,,---,0.00,VWS V14.00,2013-02-12 14:32:00,
2013-02-12 09:35:00,44.7,28.6,29.84,NNE,17,16.0,16.0,53,0.00,,---,0.00,VWS V14.00,2013-02-12 14:35:00,
2013-02-12 09:38:00,44.8,28.3,29.84,NNW,335,6.0,16.0,52,0.00,,---,0.00,VWS V14.00,2013-02-12 14:38:00,
2013-02-12 09:41:00,44.9,28.8,29.83,NNE,12,6.0,16.0,53,0.00,,---,0.00,VWS V14.00,2013-02-12 14:41:00,
2013-02-12 09:44:00,45.1,29.0,29.83,NNW,333,7.0,16.0,53,0.00,,---,0.00,VWS V14.00,2013-02-12 14:44:00,
2013-02-12 09:47:00,45.3,28.7,29.84,NE,40,5.0,16.0,52,0.00,,---,0.00,VWS V14.00,2013-02-12 14:47:00,
2013-02-12 09:50:00,45.7,28.1,29.84,NNE,28,8.0,16.0,50,0.00,,---,0.00,VWS V14.00,2013-02-12 14:50:00,
2013-02-12 09:53:00,45.9,27.8,29.84,NNW,335,3.0,16.0,49,0.00,,---,0.00,VWS V14.00,2013-02-12 14:53:00,
2013-02-12 09:56:00,46.2,27.6,29.84,NE,49,8.0,16.0,48,0.00,,---,0.00,VWS V14.00,2013-02-12 14:56:00,
2013-02-12 09:59:00,46.3,27.2,29.84,NNW,345,5.0,16.0,47,0.00,,---,0.00,VWS V14.00,2013-02-12 14:59:00,
2013-02-12 10:00:00,46.3,26.7,29.84,ENE,64,10.0,16.0,46,0.00,,---,0.00,VWS V14.00,2013-02-12 15:00:00,
2013-02-12 10:02:00,46.5,26.9,29.84,NE,51,9.0,15.0,46,0.00,,---,0.00,VWS V14.00,2013-02-12 15:02:00,
2013-02-12 10:05:00,46.6,26.9,29.83,North,356,10.0,16.0,46,0.00,,---,0.00,VWS V14.00,2013-02-12 15:05:00,
2013-02-12 10:08:00,46.8,27.6,29.83,ENE,63,6.0,16.0,47,0.00,,---,0.00,VWS V14.00,2013-02-12 15:08:00,
2013-02-12 10:11:00,47.1,26.9,29.82,NNE,13,5.0,16.0,45,0.00,,---,0.00,VWS V14.00,2013-02-12 15:11:00,
2013-02-12 10:14:00,47.3,25.4,29.82,NE,45,11.0,16.0,42,0.00,,---,0.00,VWS V14.00,2013-02-12 15:14:00,
2013-02-12 10:17:00,47.7,25.2,29.82,NNW,330,3.0,16.0,41,0.00,,---,0.00,VWS V14.00,2013-02-12 15:17:00,
2013-02-12 10:20:00,47.9,25.4,29.82,NNW,328,6.0,16.0,41,0.00,,---,0.00,VWS V14.00,2013-02-12 15:20:00,
2013-02-12 10:23:00,48.2,25.0,29.81,NNE,14,3.0,16.0,40,0.00,,---,0.00,VWS V14.00,2013-02-12 15:23:00,
2013-02-12 10:26:00,48.6,27.1,29.81,NE,44,6.0,16.0,43,0.00,,---,0.00,VWS V14.00,2013-02-12 15:26:00,
2013-02-12 10:29:00,48.8,23.0,29.81,NE,39,7.0,16.0,36,0.00,,---,0.00,VWS V14.00,2013-02-12 15:29:00,
2013-02-12 10:30:00,48.9,24.4,29.81,NE,39,8.0,16.0,38,0.00,,---,0.00,VWS V14.00,2013-02-12 15:30:00,
2013-02-12 10:32:00,49.1,24.6,29.82,ENE,70,7.0,10.0,38,0.00,,---,0.00,VWS V14.00,2013-02-12 15:32:00,
2013-02-12 10:35:00,49.3,22.8,29.83,NE,48,6.0,10.0,35,0.00,,---,0.00,VWS V14.00,2013-02-12 15:35:00,
2013-02-12 10:38:00,49.6,22.4,29.83,North,11,4.0,11.0,34,0.00,,---,0.00,VWS V14.00,2013-02-12 15:38:00,
2013-02-12 10:41:00,49.9,23.4,29.83,ENE,68,5.0,11.0,35,0.00,,---,0.00,VWS V14.00,2013-02-12 15:41:00,
2013-02-12 10:44:00,50.2,22.9,29.82,ENE,58,5.0,11.0,34,0.00,,---,0.00,VWS V14.00,2013-02-12 15:44:00,
2013-02-12 10:47:00,50.3,21.6,29.82,NNE,18,5.0,11.0,32,0.00,,---,0.00,VWS V14.00,2013-02-12 15:47:00,
2013-02-12 10:50:00,50.4,22.4,29.82,ENE,63,4.0,11.0,33,0.00,,---,0.00,VWS V14.00,2013-02-12 15:50:00,
2013-02-12 10:53:00,50.5,23.9,29.82,NE,39,2.0,11.0,35,0.00,,---,0.00,VWS V14.00,2013-02-12 15:53:00,
2013-02-12 10:56:00,50.7,22.7,29.82,NNW,333,3.0,11.0,33,0.00,,---,0.00,VWS V14.00,2013-02-12 15:56:00,
2013-02-12 10:59:00,50.8,22.8,29.82,NE,46,3.0,11.0,33,0.00,,---,0.00,VWS V14.00,2013-02-12 15:59:00,
2013-02-12 11:00:00,50.9,22.8,29.82,NE,56,1.0,11.0,33,0.00,,---,0.00,VWS V14.00,2013-02-12 16:00:00,
2013-02-12 11:02:00,51.1,23.7,29.82,NNE,32,3.0,5.0,34,0.00,,---,0.00,VWS V14.00,2013-02-12 16:02:00,
2013-02-12 11:05:00,51.4,24.0,29.82,NNW,341,2.0,5.0,34,0.00,,---,0.00,VWS V14.00,2013-02-12 16:05:00,
2013-02-12 11:08:00,51.6,22.0,29.82,NNW,347,5.0,6.0,31,0.00,,---,0.00,VWS V14.00,2013-02-12 16:08:00,
2013-02-12 11:11:00,51.9,23.0,29.82,NNE,12,3.0,6.0,32,0.00,,---,0.00,VWS V14.00,2013-02-12 16:11:00,
2013-02-12 11:14:00,52.1,23.2,29.82,NE,47,3.0,6.0,32,0.00,,---,0.00,VWS V14.00,2013-02-12 16:14:00,
2013-02-12 11:17:00,52.3,22.6,29.82,North,356,3.0,6.0,31,0.00,,---,0.00,VWS V14.00,2013-02-12 16:17:00,
2013-02-12 11:20:00,52.5,23.5,29.82,NNE,13,2.0,6.0,32,0.00,,---,0.00,VWS V14.00,2013-02-12 16:20:00,
2013-02-12 11:23:00,52.8,23.8,29.82,NE,43,2.0,6.0,32,0.00,,---,0.00,VWS V14.00,2013-02-12 16:23:00,
2013-02-12 11:26:00,53.0,23.2,29.82,ENE,58,2.0,6.0,31,0.00,,---,0.00,VWS V14.00,2013-02-12 16:26:00,
2013-02-12 11:29:00,53.0,22.4,29.82,NE,43,2.0,6.0,30,0.00,,---,0.00,VWS V14.00,2013-02-12 16:29:00,
2013-02-12 11:30:00,53.0,22.4,29.82,NE,48,3.0,6.0,30,0.00,,---,0.00,VWS V14.00,2013-02-12 16:30:00,
2013-02-12 11:32:00,53.0,23.2,29.82,NE,46,4.0,4.0,31,0.00,,---,0.00,VWS V14.00,2013-02-12 16:32:00,
2013-02-12 11:35:00,52.9,23.1,29.82,ENE,64,4.0,6.0,31,0.00,,---,0.00,VWS V14.00,2013-02-12 16:35:00,
2013-02-12 11:38:00,52.7,21.4,29.81,ENE,61,3.0,7.0,29,0.00,,---,0.00,VWS V14.00,2013-02-12 16:38:00,
2013-02-12 11:41:00,52.7,22.2,29.82,NE,44,3.0,7.0,30,0.00,,---,0.00,VWS V14.00,2013-02-12 16:41:00,
2013-02-12 11:44:00,52.7,22.9,29.82,NE,46,3.0,7.0,31,0.00,,---,0.00,VWS V14.00,2013-02-12 16:44:00,
2013-02-12 11:47:00,52.8,22.2,29.82,NE,38,2.0,7.0,30,0.00,,---,0.00,VWS V14.00,2013-02-12 16:47:00,
2013-02-12 11:50:00,52.9,21.5,29.82,NE,37,3.0,7.0,29,0.00,,---,0.00,VWS V14.00,2013-02-12 16:50:00,
2013-02-12 11:53:00,53.1,23.3,29.82,NE,36,2.0,7.0,31,0.00,,---,0.00,VWS V14.00,2013-02-12 16:53:00,
2013-02-12 11:56:00,53.1,24.0,29.82,NE,44,0.0,7.0,32,0.00,,---,0.00,VWS V14.00,2013-02-12 16:56:00,
2013-02-12 11:59:00,53.2,24.1,29.82,NE,39,2.0,7.0,32,0.00,,---,0.00,VWS V14.00,2013-02-12 16:59:00,
2013-02-12 12:00:00,53.2,22.6,29.82,NE,39,1.0,7.0,30,0.00,,---,0.00,VWS V14.00,2013-02-12 17:00:00,
2013-02-12 12:02:00,53.3,23.5,29.81,NE,44,2.0,4.0,31,0.00,,---,0.00,VWS V14.00,2013-02-12 17:02:00,
2013-02-12 12:05:00,53.4,23.5,29.81,NE,53,3.0,4.0,31,0.00,,---,0.00,VWS V14.00,2013-02-12 17:05:00,
2013-02-12 12:08:00,53.5,23.6,29.81,NE,44,1.0,4.0,31,0.00,,---,0.00,VWS V14.00,2013-02-12 17:08:00,
2013-02-12 12:11:00,53.6,24.5,29.80,NE,37,1.0,4.0,32,0.00,,---,0.00,VWS V14.00,2013-02-12 17:11:00,
2013-02-12 12:14:00,53.7,23.0,29.80,NE,40,1.0,4.0,30,0.00,,---,0.00,VWS V14.00,2013-02-12 17:14:00,
2013-02-12 12:17:00,53.7,23.0,29.80,ENE,57,1.0,4.0,30,0.00,,---,0.00,VWS V14.00,2013-02-12 17:17:00,
2013-02-12 12:20:00,53.9,21.6,29.80,NE,53,0.0,4.0,28,0.00,,---,0.00,VWS V14.00,2013-02-12 17:20:00,
2013-02-12 12:23:00,54.1,22.6,29.80,SE,138,0.0,4.0,29,0.00,,---,0.00,VWS V14.00,2013-02-12 17:23:00,
2013-02-12 12:26:00,54.4,22.8,29.80,SSE,148,0.0,4.0,29,0.00,,---,0.00,VWS V14.00,2013-02-12 17:26:00,
2013-02-12 12:29:00,54.6,25.4,29.80,SSW,208,1.0,4.0,32,0.00,,---,0.00,VWS V14.00,2013-02-12 17:29:00,
2013-02-12 12:30:00,54.6,24.6,29.80,SW,232,1.0,4.0,31,0.00,,---,0.00,VWS V14.00,2013-02-12 17:30:00,
2013-02-12 12:32:00,54.7,23.9,29.80,South,173,3.0,3.0,30,0.00,,---,0.00,VWS V14.00,2013-02-12 17:32:00,
2013-02-12 12:35:00,54.7,24.7,29.80,SW,224,2.0,3.0,31,0.00,,---,0.00,VWS V14.00,2013-02-12 17:35:00,
2013-02-12 12:38:00,54.7,25.4,29.79,SSW,210,0.0,3.0,32,0.00,,---,0.00,VWS V14.00,2013-02-12 17:38:00,
2013-02-12 12:44:00,54.8,25.5,29.79,SSE,156,0.0,3.0,32,0.00,,---,0.00,VWS V14.00,2013-02-12 17:44:00,
2013-02-12 12:47:00,54.9,25.6,29.79,SSE,154,0.0,3.0,32,0.00,,---,0.00,VWS V14.00,2013-02-12 17:47:00,
2013-02-12 12:50:00,55.0,25.7,29.79,SSE,154,0.0,3.0,32,0.00,,---,0.00,VWS V14.00,2013-02-12 17:50:00,
2013-02-12 12:53:00,54.9,24.1,29.79,SSW,198,2.0,3.0,30,0.00,,---,0.00,VWS V14.00,2013-02-12 17:53:00,
2013-02-12 12:56:00,54.9,24.9,29.79,SSE,160,2.0,3.0,31,0.00,,---,0.00,VWS V14.00,2013-02-12 17:56:00,
2013-02-12 13:00:00,54.9,24.9,29.79,SSE,160,1.0,4.0,31,0.00,,---,0.00,VWS V14.00,2013-02-12 18:00:00,
2013-02-12 13:05:00,54.9,24.9,29.79,SSW,200,1.0,3.0,31,0.00,,---,0.00,VWS V14.00,2013-02-12 18:05:00,
2013-02-12 13:06:00,54.7,23.9,29.79,SW,217,1.0,3.0,30,0.00,,---,0.00,VWS V14.00,2013-02-12 18:06:00,
2013-02-12 13:11:00,54.9,24.1,29.80,SSW,193,1.0,4.0,30,0.00,,---,0.00,VWS V14.00,2013-02-12 18:11:00,
2013-02-12 13:14:00,54.9,24.1,29.79,South,174,0.0,4.0,30,0.00,,---,0.00,VWS V14.00,2013-02-12 18:14:00,
2013-02-12 13:17:00,55.0,24.2,29.79,SSE,160,2.0,4.0,30,0.00,,---,0.00,VWS V14.00,2013-02-12 18:17:00,
2013-02-12 13:20:00,55.0,24.9,29.78,SSE,150,3.0,4.0,31,0.00,,---,0.00,VWS V14.00,2013-02-12 18:20:00,
2013-02-12 13:23:00,54.9,24.9,29.78,SSE,153,1.0,4.0,31,0.00,,---,0.00,VWS V14.00,2013-02-12 18:23:00,
2013-02-12 13:24:00,54.9,24.9,29.79,SW,215,3.0,4.0,31,0.00,,---,0.00,VWS V14.00,2013-02-12 18:24:00,
2013-02-12 13:30:00,54.6,28.9,29.77,SSE,153,2.0,7.0,37,0.00,,---,0.00,VWS V14.00,2013-02-12 18:30:00,
2013-02-12 13:32:00,54.5,29.4,29.77,South,179,4.0,5.0,38,0.00,,---,0.00,VWS V14.00,2013-02-12 18:32:00,
2013-02-12 13:33:00,55.0,24.2,29.80,SSW,204,2.0,4.0,30,0.00,,---,0.00,VWS V14.00,2013-02-12 18:33:00,
2013-02-12 13:35:00,54.4,29.3,29.77,SSE,165,4.0,5.0,38,0.00,,---,0.00,VWS V14.00,2013-02-12 18:35:00,
2013-02-12 13:38:00,54.3,27.9,29.77,South,170,5.0,5.0,36,0.00,,---,0.00,VWS V14.00,2013-02-12 18:38:00,
2013-02-12 13:41:00,54.3,29.9,29.77,South,174,4.0,5.0,39,0.00,,---,0.00,VWS V14.00,2013-02-12 18:41:00,
2013-02-12 13:44:00,54.2,29.2,29.76,SSE,165,4.0,6.0,38,0.00,,---,0.00,VWS V14.00,2013-02-12 18:44:00,
2013-02-12 13:47:00,54.1,29.1,29.76,South,170,3.0,6.0,38,0.00,,---,0.00,VWS V14.00,2013-02-12 18:47:00,
2013-02-12 13:50:00,54.0,29.0,29.76,South,175,2.0,6.0,38,0.00,,---,0.00,VWS V14.00,2013-02-12 18:50:00,
2013-02-12 13:51:00,54.8,26.3,29.77,SSE,163,5.0,7.0,33,0.00,,---,0.00,VWS V14.00,2013-02-12 18:51:00,
2013-02-12 13:53:00,54.0,29.0,29.76,South,176,2.0,6.0,38,0.00,,---,0.00,VWS V14.00,2013-02-12 18:53:00,
2013-02-12 13:59:00,53.8,28.8,29.76,SSE,162,3.0,6.0,38,0.00,,---,0.00,VWS V14.00,2013-02-12 18:59:00,
2013-02-12 14:00:00,53.8,28.8,29.76,SSE,163,3.0,6.0,38,0.00,,---,0.00,VWS V14.00,2013-02-12 19:00:00,
2013-02-12 14:02:00,53.8,29.4,29.75,South,177,3.0,4.0,39,0.00,,---,0.00,VWS V14.00,2013-02-12 19:02:00,
2013-02-12 14:05:00,53.7,28.7,29.76,SW,215,2.0,4.0,38,0.00,,---,0.00,VWS V14.00,2013-02-12 19:05:00,
2013-02-12 14:08:00,53.6,28.6,29.75,SSE,166,1.0,4.0,38,0.00,,---,0.00,VWS V14.00,2013-02-12 19:08:00,
2013-02-12 14:12:00,53.6,29.3,29.76,SSE,160,0.0,4.0,39,0.00,,---,0.00,VWS V14.00,2013-02-12 19:12:00,
2013-02-12 14:15:00,53.6,29.3,29.76,SSE,167,2.0,4.0,39,0.00,,---,0.00,VWS V14.00,2013-02-12 19:15:00,
2013-02-12 14:18:00,53.6,29.9,29.76,SSE,163,1.0,4.0,40,0.00,,---,0.00,VWS V14.00,2013-02-12 19:18:00,
2013-02-12 14:21:00,53.9,30.1,29.76,SSE,164,2.0,6.0,40,0.00,,---,0.00,VWS V14.00,2013-02-12 19:21:00,
2013-02-12 14:24:00,53.5,31.0,29.76,South,172,2.0,4.0,42,0.00,,---,0.00,VWS V14.00,2013-02-12 19:24:00,
2013-02-12 14:27:00,53.4,30.3,29.77,South,176,1.0,4.0,41,0.00,,---,0.00,VWS V14.00,2013-02-12 19:27:00,
2013-02-12 14:30:00,53.4,30.9,29.76,South,188,2.0,4.0,42,0.00,,---,0.00,VWS V14.00,2013-02-12 19:30:00,
2013-02-12 14:33:00,53.3,29.0,29.76,South,176,3.0,3.0,39,0.00,,---,0.00,VWS V14.00,2013-02-12 19:33:00,
2013-02-12 14:36:00,53.3,29.0,29.76,SSE,166,2.0,3.0,39,0.00,,---,0.00,VWS V14.00,2013-02-12 19:36:00,
2013-02-12 14:39:00,53.3,30.2,29.77,South,170,1.0,3.0,41,0.00,,---,0.00,VWS V14.00,2013-02-12 19:39:00,
2013-02-12 14:42:00,53.3,31.4,29.77,SSE,159,0.0,3.0,43,0.00,,---,0.00,VWS V14.00,2013-02-12 19:42:00,
2013-02-12 14:45:00,53.2,30.1,29.77,SSE,153,1.0,3.0,41,0.00,,---,0.00,VWS V14.00,2013-02-12 19:45:00,
2013-02-12 14:48:00,53.3,29.6,29.77,SSE,166,0.0,3.0,40,0.00,,---,0.00,VWS V14.00,2013-02-12 19:48:00,
2013-02-12 14:51:00,53.3,27.7,29.77,SSE,163,1.0,3.0,37,0.00,,---,0.00,VWS V14.00,2013-02-12 19:51:00,
2013-02-12 14:54:00,53.4,28.5,29.77,SSE,160,2.0,3.0,38,0.00,,---,0.00,VWS V14.00,2013-02-12 19:54:00,
2013-02-12 14:57:00,53.4,30.9,29.77,SSW,195,0.0,3.0,42,0.00,,---,0.00,VWS V14.00,2013-02-12 19:57:00,
2013-02-12 15:00:00,53.4,28.5,29.76,SE,143,1.0,3.0,38,0.00,,---,0.00,VWS V14.00,2013-02-12 20:00:00,
2013-02-12 15:03:00,53.5,29.8,29.77,SE,142,0.0,1.0,40,0.00,,---,0.00,VWS V14.00,2013-02-12 20:03:00,
2013-02-12 15:06:00,53.4,31.5,29.77,SSE,160,0.0,1.0,43,0.00,,---,0.00,VWS V14.00,2013-02-12 20:06:00,
2013-02-12 15:09:00,53.4,31.5,29.77,SSE,165,0.0,1.0,43,0.00,,---,0.00,VWS V14.00,2013-02-12 20:09:00,
2013-02-12 15:12:00,53.4,31.5,29.77,SW,217,0.0,1.0,43,0.00,,---,0.00,VWS V14.00,2013-02-12 20:12:00,
2013-02-12 15:15:00,53.3,30.8,29.77,SW,217,0.0,1.0,42,0.00,,---,0.00,VWS V14.00,2013-02-12 20:15:00,
2013-02-12 15:18:00,53.2,30.7,29.76,SE,142,0.0,1.0,42,0.00,,---,0.00,VWS V14.00,2013-02-12 20:18:00,
2013-02-12 15:21:00,53.0,28.7,29.77,SE,130,0.0,1.0,39,0.00,,---,0.00,VWS V14.00,2013-02-12 20:21:00,
2013-02-12 15:24:00,53.0,31.7,29.77,SE,139,0.0,1.0,44,0.00,,---,0.00,VWS V14.00,2013-02-12 20:24:00,
2013-02-12 15:27:00,52.8,30.9,29.76,SE,134,0.0,1.0,43,0.00,,---,0.00,VWS V14.00,2013-02-12 20:27:00,
2013-02-12 15:30:00,52.6,29.6,29.76,SE,134,0.0,1.0,41,0.00,,---,0.00,VWS V14.00,2013-02-12 20:30:00,
2013-02-12 15:33:00,52.5,31.8,29.76,SE,146,0.0,0.0,45,0.00,,---,0.00,VWS V14.00,2013-02-12 20:33:00,
2013-02-12 15:36:00,52.3,33.2,29.76,SE,139,0.0,0.0,48,0.00,,---,0.00,VWS V14.00,2013-02-12 20:36:00,
2013-02-12 15:39:00,52.0,31.3,29.75,SE,138,0.0,0.0,45,0.00,,---,0.00,VWS V14.00,2013-02-12 20:39:00,
2013-02-12 15:42:00,51.9,34.8,29.75,SE,139,0.0,0.0,52,0.00,,---,0.00,VWS V14.00,2013-02-12 20:42:00,
2013-02-12 15:45:00,51.7,36.5,29.75,SE,139,0.0,0.0,56,0.00,,---,0.00,VWS V14.00,2013-02-12 20:45:00,
2013-02-12 15:48:00,51.3,35.7,29.75,SE,139,0.0,0.0,55,0.00,,---,0.00,VWS V14.00,2013-02-12 20:48:00,
2013-02-12 15:51:00,51.0,34.5,29.75,SE,138,0.0,0.0,53,0.00,,---,0.00,VWS V14.00,2013-02-12 20:51:00,
2013-02-12 15:54:00,50.9,35.3,29.75,SE,139,0.0,0.0,55,0.00,,---,0.00,VWS V14.00,2013-02-12 20:54:00,
2013-02-12 15:57:00,50.8,36.6,29.75,SE,139,0.0,0.0,58,0.00,,---,0.00,VWS V14.00,2013-02-12 20:57:00,
2013-02-12 16:00:00,50.7,36.5,29.75,SE,138,0.0,0.0,58,0.00,,---,0.00,VWS V14.00,2013-02-12 21:00:00,
2013-02-12 16:03:00,50.6,37.2,29.74,SE,138,0.0,0.0,60,0.00,,---,0.00,VWS V14.00,2013-02-12 21:03:00,
2013-02-12 16:06:00,50.5,40.0,29.74,SE,125,0.0,0.0,67,0.00,,---,0.00,VWS V14.00,2013-02-12 21:06:00,
2013-02-12 16:09:00,50.3,40.5,29.74,SE,126,0.0,0.0,69,0.00,,---,0.00,VWS V14.00,2013-02-12 21:09:00,
2013-02-12 16:12:00,50.0,40.2,29.74,SE,125,0.0,0.0,69,0.00,,---,0.00,VWS V14.00,2013-02-12 21:12:00,
2013-02-12 16:15:00,49.9,40.5,29.75,SE,125,0.0,0.0,70,0.00,,---,0.00,VWS V14.00,2013-02-12 21:15:00,
2013-02-12 16:18:00,49.7,41.4,29.75,WNW,282,0.0,0.0,73,0.00,,---,0.00,VWS V14.00,2013-02-12 21:18:00,
2013-02-12 16:21:00,49.5,42.3,29.75,WNW,282,0.0,0.0,76,0.00,,---,0.00,VWS V14.00,2013-02-12 21:21:00,
2013-02-12 16:24:00,49.2,41.3,29.75,WNW,283,0.0,0.0,74,0.00,,---,0.00,VWS V14.00,2013-02-12 21:24:00,
2013-02-12 16:27:00,49.1,41.2,29.75,SSW,207,0.0,0.0,74,0.00,,---,0.00,VWS V14.00,2013-02-12 21:27:00,
2013-02-12 16:30:00,48.9,42.0,29.75,SSW,208,0.0,0.0,77,0.00,,---,0.00,VWS V14.00,2013-02-12 21:30:00,
2013-02-12 16:33:00,48.8,41.2,29.75,SW,218,0.0,0.0,75,0.00,,---,0.00,VWS V14.00,2013-02-12 21:33:00,
2013-02-12 16:36:00,48.7,41.1,29.75,West,276,0.0,0.0,75,0.00,,---,0.00,VWS V14.00,2013-02-12 21:36:00,
2013-02-12 16:39:00,48.7,42.5,29.74,West,280,0.0,0.0,79,0.00,,---,0.00,VWS V14.00,2013-02-12 21:39:00,
2013-02-12 16:42:00,48.4,42.5,29.72,NE,49,3.0,4.0,80,0.01,,---,0.01,VWS V14.00,2013-02-12 21:42:00,
2013-02-12 16:45:00,48.0,42.8,29.72,ENE,60,1.0,4.0,82,0.01,,---,0.01,VWS V14.00,2013-02-12 21:45:00,
2013-02-12 16:48:00,47.7,42.8,29.71,ENE,60,0.0,4.0,83,0.01,,---,0.01,VWS V14.00,2013-02-12 21:48:00,
2013-02-12 16:51:00,47.6,42.7,29.70,NNE,25,0.0,4.0,83,0.01,,---,0.01,VWS V14.00,2013-02-12 21:51:00,
2013-02-12 16:54:00,47.5,43.2,29.70,NNE,25,0.0,4.0,85,0.01,,---,0.01,VWS V14.00,2013-02-12 21:54:00,
2013-02-12 16:57:00,47.5,43.5,29.70,NNE,24,0.0,4.0,86,0.01,,---,0.01,VWS V14.00,2013-02-12 21:57:00,
2013-02-12 17:00:00,47.4,43.4,29.69,NNE,25,0.0,4.0,86,0.01,,---,0.01,VWS V14.00,2013-02-12 22:00:00,
2013-02-12 17:03:00,47.2,43.2,29.69,NNE,25,0.0,0.0,86,0.01,,---,0.01,VWS V14.00,2013-02-12 22:03:00,
2013-02-12 17:06:00,47.1,43.1,29.69,NW,320,0.0,0.0,86,0.01,,---,0.01,VWS V14.00,2013-02-12 22:06:00,
2013-02-12 17:09:00,46.9,43.2,29.69,NW,320,0.0,0.0,87,0.01,,---,0.01,VWS V14.00,2013-02-12 22:09:00,
2013-02-12 17:12:00,46.7,43.0,29.69,NW,321,0.0,0.0,87,0.01,,---,0.01,VWS V14.00,2013-02-12 22:12:00,
2013-02-12 17:15:00,46.5,42.8,29.69,NW,321,0.0,0.0,87,0.01,,---,0.01,VWS V14.00,2013-02-12 22:15:00,
2013-02-12 17:18:00,46.4,42.8,29.69,NW,321,0.0,0.0,87,0.01,,---,0.01,VWS V14.00,2013-02-12 22:18:00,
2013-02-12 17:21:00,46.4,42.8,29.69,NW,321,0.0,0.0,87,0.01,,---,0.01,VWS V14.00,2013-02-12 22:21:00,
2013-02-12 17:24:00,46.3,43.2,29.68,NW,320,0.0,0.0,89,0.01,,---,0.01,VWS V14.00,2013-02-12 22:24:00,
2013-02-12 17:27:00,46.2,43.1,29.67,NNE,19,0.0,0.0,89,0.01,,---,0.01,VWS V14.00,2013-02-12 22:27:00,
2013-02-12 17:30:00,46.1,43.3,29.66,NE,42,1.0,2.0,90,0.01,,---,0.01,VWS V14.00,2013-02-12 22:30:00,
2013-02-12 17:33:00,45.7,43.2,29.66,NNW,328,2.0,3.0,91,0.01,,---,0.01,VWS V14.00,2013-02-12 22:33:00,
2013-02-12 17:36:00,45.5,42.7,29.67,NW,318,2.0,3.0,90,0.01,,---,0.01,VWS V14.00,2013-02-12 22:36:00,
2013-02-12 17:39:00,45.4,42.6,29.68,NW,318,1.0,3.0,90,0.01,,---,0.01,VWS V14.00,2013-02-12 22:39:00,
2013-02-12 17:45:00,45.3,42.8,29.69,NE,44,1.0,3.0,91,0.01,,---,0.01,VWS V14.00,2013-02-12 22:45:00,
2013-02-12 17:48:00,45.4,41.8,29.70,ENE,70,0.0,3.0,87,0.01,,---,0.01,VWS V14.00,2013-02-12 22:48:00,
2013-02-12 17:51:00,45.5,41.6,29.71,ENE,70,0.0,3.0,86,0.01,,---,0.01,VWS V14.00,2013-02-12 22:51:00,
2013-02-12 17:54:00,45.6,41.7,29.72,SSE,167,4.0,4.0,86,0.02,,---,0.02,VWS V14.00,2013-02-12 22:54:00,
2013-02-12 17:57:00,45.6,42.8,29.72,SSE,159,3.0,5.0,90,0.02,,---,0.02,VWS V14.00,2013-02-12 22:57:00,
2013-02-12 18:00:00,45.5,42.7,29.73,SE,130,1.0,5.0,90,0.02,,---,0.02,VWS V14.00,2013-02-12 23:00:00,
2013-02-12 18:03:00,45.3,42.8,29.73,SW,231,1.0,3.0,91,0.02,,---,0.03,VWS V14.00,2013-02-12 23:03:00,
2013-02-12 18:07:00,45.4,42.9,29.69,NW,314,1.0,3.0,91,0.01,,---,0.01,VWS V14.00,2013-02-12 23:07:00,
2013-02-12 18:09:00,45.1,42.6,29.73,SSW,197,0.0,3.0,91,0.03,,---,0.04,VWS V14.00,2013-02-12 23:09:00,
2013-02-12 18:12:00,45.1,42.9,29.73,SW,222,1.0,3.0,92,0.03,,---,0.04,VWS V14.00,2013-02-12 23:12:00,
2013-02-12 18:15:00,45.1,42.9,29.73,SW,224,0.0,3.0,92,0.04,,---,0.05,VWS V14.00,2013-02-12 23:15:00,
2013-02-12 18:18:00,44.9,43.0,29.73,WNW,282,1.0,3.0,93,0.05,,---,0.06,VWS V14.00,2013-02-12 23:18:00,
2013-02-12 18:21:00,44.7,42.8,29.73,WNW,283,0.0,3.0,93,0.05,,---,0.06,VWS V14.00,2013-02-12 23:21:00,
2013-02-12 18:27:00,44.5,42.9,29.73,WNW,282,0.0,3.0,94,0.05,,---,0.06,VWS V14.00,2013-02-12 23:27:00,
2013-02-12 18:30:00,44.5,42.9,29.73,WNW,282,0.0,3.0,94,0.05,,---,0.06,VWS V14.00,2013-02-12 23:30:00,
2013-02-12 18:31:00,45.3,43.1,29.72,SSW,212,1.0,3.0,92,0.02,,---,0.03,VWS V14.00,2013-02-12 23:31:00,
2013-02-12 18:37:00,44.3,42.7,29.73,WNW,282,0.0,0.0,94,0.06,,---,0.07,VWS V14.00,2013-02-12 23:37:00,
2013-02-12 18:40:00,44.2,42.6,29.73,WNW,283,0.0,0.0,94,0.06,,---,0.07,VWS V14.00,2013-02-12 23:40:00,
2013-02-12 18:43:00,44.1,42.5,29.73,WNW,282,0.0,0.0,94,0.06,,---,0.07,VWS V14.00,2013-02-12 23:43:00,
2013-02-12 18:46:00,44.0,42.4,29.73,WNW,284,0.0,0.0,94,0.07,,---,0.08,VWS V14.00,2013-02-12 23:46:00,
2013-02-12 18:49:00,44.6,42.7,29.73,WNW,283,0.0,3.0,93,0.05,,---,0.06,VWS V14.00,2013-02-12 23:49:00,
2013-02-12 18:52:00,43.9,42.3,29.72,WNW,284,0.0,0.0,94,0.07,,---,0.08,VWS V14.00,2013-02-12 23:52:00,
2013-02-12 18:55:00,43.8,42.2,29.72,WNW,284,0.0,0.0,94,0.07,,---,0.08,VWS V14.00,2013-02-12 23:55:00,
2013-02-12 18:58:00,44.4,42.8,29.73,WNW,282,0.0,0.0,94,0.06,,---,0.07,VWS V14.00,2013-02-12 23:58:00,
2013-02-12 19:00:00,43.8,42.5,29.72,North,6,0.0,0.0,95,0.07,,---,0.08,VWS V14.00,2013-02-13 00:00:00,
2013-02-12 19:01:00,43.8,42.5,29.72,North,8,0.0,0.0,95,0.06,,---,0.08,VWS V14.00,2013-02-13 00:01:00,
2013-02-12 19:04:00,43.8,42.5,29.72,NNE,33,0.0,0.0,95,0.06,,---,0.08,VWS V14.00,2013-02-13 00:04:00,
2013-02-12 19:07:00,43.7,42.4,29.73,NNW,330,0.0,0.0,95,0.07,,---,0.09,VWS V14.00,2013-02-13 00:07:00,
2013-02-12 19:10:00,43.7,42.4,29.73,NNW,336,2.0,2.0,95,0.07,,---,0.09,VWS V14.00,2013-02-13 00:10:00,
2013-02-12 19:13:00,43.5,42.2,29.72,NW,304,0.0,2.0,95,0.07,,---,0.09,VWS V14.00,2013-02-13 00:13:00,
2013-02-12 19:16:00,43.5,42.2,29.72,NW,312,0.0,2.0,95,0.08,,---,0.10,VWS V14.00,2013-02-13 00:16:00,
2013-02-12 19:19:00,43.4,42.1,29.71,NNW,338,1.0,2.0,95,0.08,,---,0.10,VWS V14.00,2013-02-13 00:19:00,
2013-02-12 19:22:00,43.4,42.1,29.72,ENE,57,0.0,2.0,95,0.08,,---,0.10,VWS V14.00,2013-02-13 00:22:00,
2013-02-12 19:25:00,43.3,42.0,29.73,NE,51,0.0,2.0,95,0.08,,---,0.10,VWS V14.00,2013-02-13 00:25:00,
2013-02-12 19:28:00,43.3,42.0,29.72,NE,51,0.0,2.0,95,0.09,,---,0.11,VWS V14.00,2013-02-13 00:28:00,
2013-02-12 19:30:00,43.4,42.1,29.71,NE,51,0.0,2.0,95,0.09,,---,0.11,VWS V14.00,2013-02-13 00:30:00,
2013-02-12 19:31:00,43.4,42.1,29.71,NE,51,0.0,0.0,95,0.05,,---,0.11,VWS V14.00,2013-02-13 00:31:00,
2013-02-12 19:34:00,43.3,42.0,29.71,NE,51,0.0,0.0,95,0.05,,---,0.11,VWS V14.00,2013-02-13 00:34:00,
2013-02-12 19:37:00,43.3,42.0,29.71,NE,51,0.0,0.0,95,0.05,,---,0.11,VWS V14.00,2013-02-13 00:37:00,
2013-02-12 19:40:00,43.3,42.0,29.70,NE,51,0.0,0.0,95,0.05,,---,0.11,VWS V14.00,2013-02-13 00:40:00,
2013-02-12 19:43:00,43.2,41.9,29.70,SSE,161,0.0,0.0,95,0.05,,---,0.11,VWS V14.00,2013-02-13 00:43:00,
2013-02-12 19:46:00,43.2,41.9,29.71,SSE,160,0.0,0.0,95,0.05,,---,0.11,VWS V14.00,2013-02-13 00:46:00,
2013-02-12 19:49:00,43.2,41.9,29.70,SSE,160,0.0,0.0,95,0.05,,---,0.11,VWS V14.00,2013-02-13 00:49:00,
2013-02-12 19:52:00,43.2,41.9,29.70,SSE,160,0.0,0.0,95,0.05,,---,0.11,VWS V14.00,2013-02-13 00:52:00,
2013-02-12 19:55:00,43.2,41.9,29.70,SE,146,0.0,0.0,95,0.05,,---,0.11,VWS V14.00,2013-02-13 00:55:00,
2013-02-12 19:58:00,43.2,41.9,29.70,NNW,336,1.0,1.0,95,0.05,,---,0.11,VWS V14.00,2013-02-13 00:58:00,
2013-02-12 20:00:00,43.2,42.1,29.70,North,352,1.0,2.0,96,0.05,,---,0.11,VWS V14.00,2013-02-13 01:00:00,
2013-02-12 20:01:00,43.2,42.1,29.71,NNW,342,1.0,1.0,96,0.03,,---,0.11,VWS V14.00,2013-02-13 01:01:00,
2013-02-12 20:04:00,43.2,42.1,29.72,NNW,340,0.0,1.0,96,0.03,,---,0.11,VWS V14.00,2013-02-13 01:04:00,
2013-02-12 20:07:00,43.2,42.1,29.72,North,356,0.0,1.0,96,0.03,,---,0.11,VWS V14.00,2013-02-13 01:07:00,
2013-02-12 20:10:00,43.1,42.0,29.72,NNE,33,3.0,3.0,96,0.03,,---,0.11,VWS V14.00,2013-02-13 01:10:00,
2013-02-12 20:13:00,43.1,41.8,29.72,ENE,63,1.0,5.0,95,0.03,,---,0.11,VWS V14.00,2013-02-13 01:13:00,
2013-02-12 20:16:00,43.2,41.6,29.72,ENE,68,3.0,5.0,94,0.03,,---,0.11,VWS V14.00,2013-02-13 01:16:00,
2013-02-12 20:19:00,43.2,41.6,29.71,NE,49,5.0,10.0,94,0.03,,---,0.11,VWS V14.00,2013-02-13 01:19:00,
2013-02-12 20:22:00,43.1,41.5,29.72,NE,37,10.0,11.0,94,0.03,,---,0.11,VWS V14.00,2013-02-13 01:22:00,
2013-02-12 20:25:00,43.0,41.4,29.72,NE,38,2.0,11.0,94,0.03,,---,0.11,VWS V14.00,2013-02-13 01:25:00,
2013-02-12 20:28:00,43.0,41.4,29.72,NNE,30,6.0,11.0,94,0.03,,---,0.11,VWS V14.00,2013-02-13 01:28:00,
2013-02-12 20:30:00,43.0,41.1,29.72,NE,54,2.0,11.0,93,0.03,,---,0.11,VWS V14.00,2013-02-13 01:30:00,
2013-02-12 20:31:00,43.0,41.1,29.72,ENE,58,3.0,3.0,93,0.00,,---,0.11,VWS V14.00,2013-02-13 01:31:00,
2013-02-12 20:34:00,43.0,41.1,29.71,NE,44,8.0,8.0,93,0.00,,---,0.11,VWS V14.00,2013-02-13 01:34:00,
2013-02-12 20:37:00,43.0,40.8,29.72,NNE,18,1.0,8.0,92,0.00,,---,0.11,VWS V14.00,2013-02-13 01:37:00,
2013-02-12 20:40:00,43.0,40.8,29.72,NNW,330,1.0,8.0,92,0.00,,---,0.11,VWS V14.00,2013-02-13 01:40:00,
2013-02-12 20:43:00,42.9,40.7,29.73,NW,315,1.0,8.0,92,0.00,,---,0.11,VWS V14.00,2013-02-13 01:43:00,
2013-02-12 20:46:00,42.9,40.7,29.72,NNW,341,1.0,8.0,92,0.00,,---,0.11,VWS V14.00,2013-02-13 01:46:00,
2013-02-12 20:49:00,42.9,40.7,29.72,NNW,334,3.0,8.0,92,0.00,,---,0.11,VWS V14.00,2013-02-13 01:49:00,
2013-02-12 20:52:00,42.9,41.0,29.71,NW,312,4.0,8.0,93,0.00,,---,0.11,VWS V14.00,2013-02-13 01:52:00,
2013-02-12 20:55:00,42.8,40.9,29.71,NW,319,3.0,8.0,93,0.00,,---,0.11,VWS V14.00,2013-02-13 01:55:00,
2013-02-12 20:58:00,42.6,40.7,29.72,NNW,348,2.0,8.0,93,0.00,,---,0.11,VWS V14.00,2013-02-13 01:58:00,
2013-02-12 21:00:00,42.6,40.7,29.71,NNW,328,7.0,8.0,93,0.00,,---,0.11,VWS V14.00,2013-02-13 02:00:00,
2013-02-12 21:01:00,42.6,40.4,29.71,NW,311,2.0,7.0,92,0.00,,---,0.11,VWS V14.00,2013-02-13 02:01:00,
2013-02-12 21:04:00,42.6,40.4,29.71,NNW,330,5.0,7.0,92,0.00,,---,0.11,VWS V14.00,2013-02-13 02:04:00,
2013-02-12 21:07:00,42.6,40.4,29.72,NNW,331,1.0,7.0,92,0.00,,---,0.11,VWS V14.00,2013-02-13 02:07:00,
2013-02-12 21:10:00,42.6,40.2,29.71,NE,49,0.0,7.0,91,0.00,,---,0.11,VWS V14.00,2013-02-13 02:10:00,
2013-02-12 21:13:00,42.6,40.2,29.72,NNE,23,0.0,7.0,91,0.00,,---,0.11,VWS V14.00,2013-02-13 02:13:00,
2013-02-12 21:16:00,42.6,40.2,29.72,NNE,23,0.0,7.0,91,0.00,,---,0.11,VWS V14.00,2013-02-13 02:16:00,
2013-02-12 21:19:00,42.6,40.2,29.72,NNE,23,0.0,7.0,91,0.00,,---,0.11,VWS V14.00,2013-02-13 02:19:00,
2013-02-12 21:22:00,42.5,40.1,29.71,NE,39,0.0,7.0,91,0.00,,---,0.11,VWS V14.00,2013-02-13 02:22:00,
2013-02-12 21:25:00,42.5,40.1,29.71,NE,41,0.0,7.0,91,0.00,,---,0.11,VWS V14.00,2013-02-13 02:25:00,
2013-02-12 21:28:00,42.5,40.1,29.71,NE,47,0.0,7.0,91,0.00,,---,0.11,VWS V14.00,2013-02-13 02:28:00,
2013-02-12 21:30:00,42.5,40.3,29.71,NE,46,0.0,7.0,92,0.00,,---,0.11,VWS V14.00,2013-02-13 02:30:00,
2013-02-12 21:31:00,42.4,40.2,29.71,NE,47,0.0,0.0,92,0.00,,---,0.11,VWS V14.00,2013-02-13 02:31:00,
2013-02-12 21:34:00,42.4,40.2,29.71,East,100,0.0,0.0,92,0.00,,---,0.11,VWS V14.00,2013-02-13 02:34:00,
2013-02-12 21:37:00,42.4,40.2,29.71,SE,142,0.0,0.0,92,0.00,,---,0.11,VWS V14.00,2013-02-13 02:37:00,
2013-02-12 21:40:00,42.4,40.2,29.71,SE,138,0.0,0.0,92,0.00,,---,0.11,VWS V14.00,2013-02-13 02:40:00,
2013-02-12 21:43:00,42.4,40.2,29.70,NNE,27,0.0,0.0,92,0.00,,---,0.11,VWS V14.00,2013-02-13 02:43:00,
2013-02-12 21:46:00,42.4,40.5,29.69,NNW,336,0.0,0.0,93,0.01,,---,0.12,VWS V14.00,2013-02-13 02:46:00,
2013-02-12 21:49:00,42.4,40.5,29.69,NW,322,0.0,0.0,93,0.01,,---,0.12,VWS V14.00,2013-02-13 02:49:00,
2013-02-12 21:52:00,42.2,40.3,29.69,NNW,337,3.0,3.0,93,0.01,,---,0.12,VWS V14.00,2013-02-13 02:52:00,
2013-02-12 21:55:00,42.1,40.5,29.68,NNW,329,0.0,3.0,94,0.01,,---,0.12,VWS V14.00,2013-02-13 02:55:00,
2013-02-12 21:58:00,42.0,40.4,29.68,NE,51,0.0,3.0,94,0.01,,---,0.12,VWS V14.00,2013-02-13 02:58:00,
2013-02-12 22:00:00,42.0,40.4,29.68,ENE,76,0.0,3.0,94,0.01,,---,0.12,VWS V14.00,2013-02-13 03:00:00,
2013-02-12 22:01:00,42.0,40.4,29.68,ENE,72,0.0,0.0,94,0.01,,---,0.12,VWS V14.00,2013-02-13 03:01:00,
2013-02-12 22:04:00,41.9,40.3,29.68,SW,233,0.0,0.0,94,0.01,,---,0.12,VWS V14.00,2013-02-13 03:04:00,
2013-02-12 22:07:00,41.9,40.6,29.69,West,276,0.0,0.0,95,0.01,,---,0.12,VWS V14.00,2013-02-13 03:07:00,
2013-02-12 22:10:00,41.9,40.6,29.69,West,281,0.0,3.0,95,0.01,,---,0.12,VWS V14.00,2013-02-13 03:10:00,
2013-02-12 22:16:00,41.9,40.6,29.69,SSE,167,0.0,4.0,95,0.01,,---,0.12,VWS V14.00,2013-02-13 03:16:00,
2013-02-12 22:19:00,41.9,40.6,29.69,SSE,148,3.0,5.0,95,0.01,,---,0.12,VWS V14.00,2013-02-13 03:19:00,
2013-02-12 22:30:00,41.9,40.6,29.69,SW,219,3.0,5.0,95,0.01,,---,0.12,VWS V14.00,2013-02-13 03:30:00,
2013-02-12 22:31:00,41.9,40.6,29.69,SW,219,2.0,4.0,95,0.01,,---,0.12,VWS V14.00,2013-02-13 03:31:00,
2013-02-12 22:37:00,41.9,40.3,29.68,South,178,3.0,7.0,94,0.01,,---,0.12,VWS V14.00,2013-02-13 03:37:00,
2013-02-12 22:38:00,41.9,40.6,29.69,SSE,158,2.0,3.0,95,0.01,,---,0.12,VWS V14.00,2013-02-13 03:38:00,
2013-02-12 22:40:00,42.1,40.2,29.68,SSW,211,1.0,7.0,93,0.01,,---,0.12,VWS V14.00,2013-02-13 03:40:00,
2013-02-12 22:43:00,42.2,40.0,29.67,South,170,4.0,7.0,92,0.01,,---,0.12,VWS V14.00,2013-02-13 03:43:00,
2013-02-12 22:47:00,41.9,40.6,29.69,SSW,207,0.0,5.0,95,0.01,,---,0.12,VWS V14.00,2013-02-13 03:47:00,
2013-02-12 22:53:00,41.9,40.6,29.69,SSW,208,0.0,5.0,95,0.01,,---,0.12,VWS V14.00,2013-02-13 03:53:00,
2013-02-12 22:55:00,42.3,39.3,29.67,SSW,194,0.0,7.0,89,0.01,,---,0.12,VWS V14.00,2013-02-13 03:55:00,
2013-02-12 22:58:00,42.2,38.9,29.66,SW,216,0.0,7.0,88,0.01,,---,0.12,VWS V14.00,2013-02-13 03:58:00,
2013-02-12 22:59:00,41.9,40.6,29.69,SE,136,5.0,7.0,95,0.01,,---,0.12,VWS V14.00,2013-02-13 03:59:00,
2013-02-12 23:00:00,42.2,38.9,29.66,NW,314,2.0,7.0,88,0.01,,---,0.12,VWS V14.00,2013-02-13 04:00:00,
2013-02-12 23:01:00,42.2,38.3,29.66,SW,229,2.0,3.0,86,0.00,,---,0.12,VWS V14.00,2013-02-13 04:01:00,
2013-02-12 23:04:00,42.2,38.9,29.66,West,276,2.0,4.0,88,0.00,,---,0.12,VWS V14.00,2013-02-13 04:04:00,
2013-02-12 23:07:00,42.1,39.1,29.66,NW,321,0.0,4.0,89,0.00,,---,0.12,VWS V14.00,2013-02-13 04:07:00,
2013-02-12 23:10:00,42.0,39.0,29.66,NNW,338,4.0,5.0,89,0.00,,---,0.12,VWS V14.00,2013-02-13 04:10:00,
2013-02-12 23:11:00,42.2,39.5,29.67,SSE,158,5.0,7.0,90,0.01,,---,0.12,VWS V14.00,2013-02-13 04:11:00,
2013-02-12 23:17:00,42.2,39.2,29.68,SSE,167,1.0,7.0,89,0.01,,---,0.12,VWS V14.00,2013-02-13 04:17:00,
2013-02-12 23:22:00,42.4,38.5,29.66,NNW,334,0.0,8.0,86,0.00,,---,0.12,VWS V14.00,2013-02-13 04:22:00,
2013-02-12 23:25:00,42.3,38.7,29.65,WNW,295,1.0,8.0,87,0.00,,---,0.12,VWS V14.00,2013-02-13 04:25:00,
2013-02-12 23:29:00,42.2,38.9,29.66,WNW,288,0.0,8.0,88,0.00,,---,0.12,VWS V14.00,2013-02-13 04:29:00,
2013-02-12 23:30:00,42.2,38.9,29.65,WNW,288,0.0,8.0,88,0.00,,---,0.12,VWS V14.00,2013-02-13 04:30:00,
2013-02-12 23:32:00,42.1,39.1,29.65,West,274,0.0,0.0,89,0.00,,---,0.12,VWS V14.00,2013-02-13 04:32:00,
2013-02-12 23:35:00,42.0,39.3,29.65,West,269,0.0,0.0,90,0.00,,---,0.12,VWS V14.00,2013-02-13 04:35:00,
2013-02-12 23:38:00,42.0,38.7,29.66,WNW,303,3.0,5.0,88,0.00,,---,0.12,VWS V14.00,2013-02-13 04:38:00,
2013-02-12 23:41:00,41.8,39.1,29.65,West,269,0.0,0.0,90,0.00,,---,0.12,VWS V14.00,2013-02-13 04:41:00,
2013-02-12 23:44:00,42.2,38.0,29.66,NNE,30,4.0,8.0,85,0.00,,---,0.12,VWS V14.00,2013-02-13 04:44:00,
2013-02-12 23:47:00,41.6,38.9,29.65,West,269,0.0,0.0,90,0.00,,---,0.12,VWS V14.00,2013-02-13 04:47:00,
2013-02-12 23:50:00,41.6,38.9,29.65,NNW,336,2.0,3.0,90,0.00,,---,0.12,VWS V14.00,2013-02-13 04:50:00,
2013-02-12 23:53:00,41.7,39.3,29.64,NW,315,2.0,4.0,91,0.00,,---,0.12,VWS V14.00,2013-02-13 04:53:00,
2013-02-12 23:56:00,41.6,39.5,29.64,NW,323,4.0,4.0,92,0.00,,---,0.12,VWS V14.00,2013-02-13 04:56:00,
2013-02-12 23:59:00,41.4,39.2,29.64,NNW,334,4.0,5.0,92,0.00,,---,0.12,VWS V14.00,2013-02-13 04:59:00,